EXS7JN EGCC-LEAL
Flight info
| Callsign | EXS7JN |
|---|---|
| Flight time | N/A |
| Altitude | 37000 |
| Route | LISTO P18 TELBA L151 KIDLI UN859 SOPIL DCT BALAN DCT LMG DCT PIMQO DCT AGN DCT ANETO DCT POSSY DCT XIMPE DCT RIMES N860 VLC |
| Aircraft | A21N/M-SDE2E3FGHIJ1RWXY/LB1 |
Departure
| Time | N/A |
|---|---|
| Airport | Manchester Airport (EGCC) |
Arrival
| Time | 2026-04-29 12:15 |
|---|---|
| Airport | Alicante-Elche Miguel Hernández Airport (LEAL) |
| Time | Latitude | Longitude | Altitude | Speed | Heading |
|---|---|---|---|---|---|
| 2026-04-29 11:42 | 40.51417 | -0.12850 | 36926 ft | 421 kts | 194° |
| 2026-04-29 11:43 | 40.45587 | -0.14623 | 36915 ft | 422 kts | 194° |
| 2026-04-29 11:43 | 40.42739 | -0.15490 | 36747 ft | 418 kts | 194° |
| 2026-04-29 11:43 | 40.39862 | -0.16363 | 36448 ft | 419 kts | 194° |
| 2026-04-29 11:44 | 40.37055 | -0.17213 | 36176 ft | 419 kts | 193° |
| 2026-04-29 11:44 | 40.34213 | -0.18074 | 35914 ft | 418 kts | 193° |
| 2026-04-29 11:44 | 40.31384 | -0.18932 | 35660 ft | 415 kts | 193° |
| 2026-04-29 11:44 | 40.28566 | -0.19783 | 35406 ft | 413 kts | 193° |
| 2026-04-29 11:45 | 40.25770 | -0.20627 | 35162 ft | 411 kts | 193° |
| 2026-04-29 11:45 | 40.22997 | -0.21463 | 34819 ft | 407 kts | 193° |
| 2026-04-29 11:45 | 40.20245 | -0.22293 | 34453 ft | 404 kts | 193° |
| 2026-04-29 11:45 | 40.17517 | -0.23116 | 34023 ft | 400 kts | 193° |
| 2026-04-29 11:46 | 40.14846 | -0.23920 | 33619 ft | 397 kts | 193° |
| 2026-04-29 11:46 | 40.12175 | -0.24727 | 33102 ft | 393 kts | 193° |
| 2026-04-29 11:46 | 40.09517 | -0.25526 | 32633 ft | 390 kts | 193° |
| 2026-04-29 11:46 | 40.06887 | -0.26316 | 32123 ft | 387 kts | 193° |
| 2026-04-29 11:47 | 40.04273 | -0.27101 | 31619 ft | 385 kts | 193° |
| 2026-04-29 11:47 | 40.01665 | -0.27883 | 31145 ft | 382 kts | 193° |
| 2026-04-29 11:47 | 39.99097 | -0.28730 | 30701 ft | 379 kts | 196° |
| 2026-04-29 11:47 | 39.96574 | -0.29702 | 30273 ft | 377 kts | 196° |
| 2026-04-29 11:48 | 39.94066 | -0.30685 | 29809 ft | 374 kts | 197° |
| 2026-04-29 11:48 | 39.91576 | -0.31659 | 29291 ft | 372 kts | 197° |
| 2026-04-29 11:48 | 39.89107 | -0.32623 | 28863 ft | 370 kts | 197° |
| 2026-04-29 11:48 | 39.86655 | -0.33580 | 28451 ft | 367 kts | 197° |
| 2026-04-29 11:49 | 39.84215 | -0.34528 | 28042 ft | 365 kts | 197° |
| 2026-04-29 11:49 | 39.81791 | -0.35471 | 27600 ft | 362 kts | 197° |
| 2026-04-29 11:49 | 39.79418 | -0.36393 | 27157 ft | 359 kts | 197° |
| 2026-04-29 11:49 | 39.77029 | -0.37322 | 26699 ft | 358 kts | 197° |
| 2026-04-29 11:50 | 39.74650 | -0.38245 | 26253 ft | 356 kts | 197° |
| 2026-04-29 11:50 | 39.72284 | -0.39161 | 25840 ft | 353 kts | 197° |
| 2026-04-29 11:50 | 39.69935 | -0.40070 | 25425 ft | 350 kts | 197° |
| 2026-04-29 11:50 | 39.67609 | -0.40970 | 25027 ft | 348 kts | 197° |
| 2026-04-29 11:51 | 39.65295 | -0.41866 | 24601 ft | 347 kts | 197° |
| 2026-04-29 11:51 | 39.62985 | -0.42758 | 24180 ft | 346 kts | 197° |
| 2026-04-29 11:51 | 39.60685 | -0.43647 | 23760 ft | 345 kts | 197° |
| 2026-04-29 11:51 | 39.58389 | -0.44532 | 23303 ft | 344 kts | 197° |
| 2026-04-29 11:52 | 39.56104 | -0.45414 | 22834 ft | 342 kts | 198° |
| 2026-04-29 11:52 | 39.53835 | -0.46289 | 22413 ft | 339 kts | 198° |
| 2026-04-29 11:52 | 39.51571 | -0.47160 | 21974 ft | 337 kts | 198° |
| 2026-04-29 11:52 | 39.49361 | -0.48010 | 21547 ft | 335 kts | 198° |
| 2026-04-29 11:53 | 39.47126 | -0.48856 | 21127 ft | 333 kts | 197° |
| 2026-04-29 11:53 | 39.44900 | -0.49649 | 20743 ft | 331 kts | 197° |
| 2026-04-29 11:53 | 39.42690 | -0.50429 | 20361 ft | 328 kts | 197° |
| 2026-04-29 11:53 | 39.40499 | -0.51204 | 20001 ft | 325 kts | 197° |
| 2026-04-29 11:54 | 39.38318 | -0.51979 | 19638 ft | 323 kts | 197° |
| 2026-04-29 11:54 | 39.36151 | -0.52749 | 19254 ft | 322 kts | 197° |
| 2026-04-29 11:54 | 39.33989 | -0.53519 | 18889 ft | 322 kts | 198° |
| 2026-04-29 11:54 | 39.31835 | -0.54286 | 18542 ft | 321 kts | 198° |
| 2026-04-29 11:55 | 39.30407 | -0.54794 | 18301 ft | 321 kts | 198° |
| 2026-04-29 11:55 | 39.27554 | -0.55808 | 17780 ft | 321 kts | 198° |
| 2026-04-29 11:55 | 39.25403 | -0.56574 | 17398 ft | 320 kts | 197° |
| 2026-04-29 11:55 | 39.23257 | -0.57336 | 17036 ft | 319 kts | 197° |
| 2026-04-29 11:56 | 39.21130 | -0.58091 | 16701 ft | 316 kts | 197° |
| 2026-04-29 11:56 | 39.19729 | -0.58589 | 16488 ft | 314 kts | 197° |
| 2026-04-29 11:56 | 39.17606 | -0.59342 | 16154 ft | 311 kts | 197° |
| 2026-04-29 11:56 | 39.15530 | -0.60078 | 15806 ft | 308 kts | 197° |
| 2026-04-29 11:57 | 39.13503 | -0.60794 | 15470 ft | 303 kts | 197° |
| 2026-04-29 11:57 | 39.11482 | -0.61509 | 15107 ft | 300 kts | 197° |
| 2026-04-29 11:57 | 39.09477 | -0.62218 | 14802 ft | 297 kts | 197° |
| 2026-04-29 11:57 | 39.07492 | -0.62919 | 14475 ft | 294 kts | 197° |
| 2026-04-29 11:58 | 39.05525 | -0.63615 | 14147 ft | 291 kts | 196° |
| 2026-04-29 11:58 | 39.03589 | -0.64299 | 13819 ft | 287 kts | 196° |
| 2026-04-29 11:58 | 39.01672 | -0.64976 | 13476 ft | 284 kts | 196° |
| 2026-04-29 11:58 | 38.99773 | -0.65645 | 13155 ft | 281 kts | 196° |
| 2026-04-29 11:59 | 38.97903 | -0.66304 | 12862 ft | 277 kts | 196° |
| 2026-04-29 11:59 | 38.96046 | -0.66959 | 12570 ft | 276 kts | 196° |
| 2026-04-29 11:59 | 38.94198 | -0.67610 | 12267 ft | 275 kts | 196° |
| 2026-04-29 11:59 | 38.92358 | -0.68257 | 11962 ft | 274 kts | 196° |
| 2026-04-29 12:00 | 38.90523 | -0.68903 | 11653 ft | 273 kts | 196° |
| 2026-04-29 12:00 | 38.88720 | -0.69537 | 11353 ft | 272 kts | 196° |
| 2026-04-29 12:00 | 38.86896 | -0.70178 | 11058 ft | 271 kts | 196° |
| 2026-04-29 12:00 | 38.85077 | -0.70816 | 10771 ft | 270 kts | 196° |
| 2026-04-29 12:01 | 38.83268 | -0.71451 | 10434 ft | 269 kts | 196° |
| 2026-04-29 12:01 | 38.81397 | -0.72108 | 10085 ft | 280 kts | 196° |
| 2026-04-29 12:01 | 38.79507 | -0.72771 | 9954 ft | 282 kts | 196° |
| 2026-04-29 12:01 | 38.77616 | -0.73434 | 9785 ft | 281 kts | 196° |
| 2026-04-29 12:02 | 38.75750 | -0.74087 | 9520 ft | 276 kts | 196° |
| 2026-04-29 12:02 | 38.73911 | -0.74730 | 9229 ft | 272 kts | 196° |
| 2026-04-29 12:02 | 38.72098 | -0.75364 | 8942 ft | 269 kts | 196° |
| 2026-04-29 12:02 | 38.70305 | -0.75991 | 8640 ft | 266 kts | 196° |
| 2026-04-29 12:03 | 38.68531 | -0.76610 | 8350 ft | 263 kts | 196° |
| 2026-04-29 12:03 | 38.66778 | -0.77221 | 8065 ft | 259 kts | 196° |
| 2026-04-29 12:03 | 38.65046 | -0.77825 | 7788 ft | 257 kts | 196° |
| 2026-04-29 12:03 | 38.63317 | -0.78429 | 7519 ft | 257 kts | 197° |
| 2026-04-29 12:04 | 38.61602 | -0.79028 | 7249 ft | 254 kts | 196° |
| 2026-04-29 12:04 | 38.59922 | -0.79615 | 7054 ft | 246 kts | 196° |
| 2026-04-29 12:04 | 38.58284 | -0.80187 | 7067 ft | 243 kts | 196° |
| 2026-04-29 12:04 | 38.56668 | -0.80751 | 7146 ft | 244 kts | 196° |
| 2026-04-29 12:05 | 38.55031 | -0.81323 | 7100 ft | 244 kts | 196° |
| 2026-04-29 12:05 | 38.53432 | -0.82034 | 7138 ft | 243 kts | 206° |
| 2026-04-29 12:05 | 38.51925 | -0.83008 | 7099 ft | 242 kts | 208° |
| 2026-04-29 12:05 | 38.50431 | -0.84008 | 7136 ft | 242 kts | 208° |
| 2026-04-29 12:06 | 38.48961 | -0.84980 | 6856 ft | 237 kts | 208° |
| 2026-04-29 12:06 | 38.47485 | -0.85950 | 6433 ft | 240 kts | 208° |
| 2026-04-29 12:06 | 38.45994 | -0.86931 | 6148 ft | 240 kts | 207° |
| 2026-04-29 12:06 | 38.44543 | -0.87890 | 5984 ft | 227 kts | 208° |
| 2026-04-29 12:07 | 38.43192 | -0.88784 | 5935 ft | 209 kts | 208° |
| 2026-04-29 12:07 | 38.41949 | -0.89604 | 5884 ft | 197 kts | 207° |
| 2026-04-29 12:07 | 38.40736 | -0.90405 | 5728 ft | 196 kts | 208° |
| 2026-04-29 12:07 | 38.39524 | -0.91201 | 5539 ft | 196 kts | 208° |
| 2026-04-29 12:08 | 38.38303 | -0.91953 | 5337 ft | 195 kts | 197° |
| 2026-04-29 12:08 | 38.36960 | -0.91951 | 5159 ft | 196 kts | 165° |
| 2026-04-29 12:08 | 38.35665 | -0.91407 | 5013 ft | 195 kts | 161° |
| 2026-04-29 12:08 | 38.34400 | -0.90840 | 4893 ft | 195 kts | 159° |
| 2026-04-29 12:09 | 38.33377 | -0.89747 | 4768 ft | 196 kts | 122° |
| 2026-04-29 12:09 | 38.32846 | -0.88149 | 4670 ft | 196 kts | 107° |
| 2026-04-29 12:09 | 38.32517 | -0.86467 | 4517 ft | 195 kts | 102° |
| 2026-04-29 12:09 | 38.32265 | -0.84772 | 4306 ft | 194 kts | 101° |
| 2026-04-29 12:10 | 38.32026 | -0.83085 | 4069 ft | 193 kts | 101° |
| 2026-04-29 12:10 | 38.31791 | -0.81405 | 3824 ft | 192 kts | 102° |
| 2026-04-29 12:10 | 38.31559 | -0.79746 | 3581 ft | 187 kts | 102° |
| 2026-04-29 12:10 | 38.31340 | -0.78175 | 3364 ft | 173 kts | 102° |
| 2026-04-29 12:11 | 38.31139 | -0.76735 | 3143 ft | 156 kts | 102° |
| 2026-04-29 12:11 | 38.30961 | -0.75448 | 2930 ft | 145 kts | 98° |
| 2026-04-29 12:11 | 38.30784 | -0.74194 | 2742 ft | 143 kts | 99° |
| 2026-04-29 12:11 | 38.30610 | -0.72949 | 2559 ft | 142 kts | 99° |
| 2026-04-29 12:12 | 38.30438 | -0.71715 | 2371 ft | 141 kts | 100° |
| 2026-04-29 12:12 | 38.30270 | -0.70512 | 2189 ft | 140 kts | 100° |
| 2026-04-29 12:12 | 38.30100 | -0.69298 | 2006 ft | 138 kts | 101° |
| 2026-04-29 12:12 | 38.29932 | -0.68093 | 1828 ft | 138 kts | 101° |
| 2026-04-29 12:13 | 38.29765 | -0.66896 | 1650 ft | 136 kts | 101° |
| 2026-04-29 12:13 | 38.29600 | -0.65715 | 1466 ft | 136 kts | 100° |
| 2026-04-29 12:13 | 38.29435 | -0.64531 | 1290 ft | 136 kts | 102° |
| 2026-04-29 12:13 | 38.29270 | -0.63338 | 1102 ft | 136 kts | 102° |
| 2026-04-29 12:14 | 38.29104 | -0.62138 | 882 ft | 138 kts | 102° |
| 2026-04-29 12:14 | 38.28932 | -0.60939 | 745 ft | 138 kts | 102° |
| 2026-04-29 12:14 | 38.28762 | -0.59740 | 545 ft | 138 kts | 102° |
| 2026-04-29 12:14 | 38.28602 | -0.58569 | 379 ft | 133 kts | 102° |
| 2026-04-29 12:15 | 38.28445 | -0.57419 | 193 ft | 130 kts | 103° |
| 2026-04-29 12:15 | 38.28295 | -0.56345 | 120 ft | 113 kts | 104° |
| 2026-04-29 12:15 | 38.28191 | -0.55644 | 101 ft | 52 kts | 100° |
| 2026-04-29 12:15 | 38.28141 | -0.55281 | 85 ft | 38 kts | 100° |
| 2026-04-29 12:16 | 38.28117 | -0.55026 | 81 ft | 26 kts | 79° |
| 2026-04-29 12:16 | 38.28159 | -0.54837 | 68 ft | 14 kts | 70° |
| 2026-04-29 12:16 | 38.28194 | -0.54720 | 69 ft | 6 kts | 63° |
| 2026-04-29 12:16 | 38.28233 | -0.54709 | 68 ft | 7 kts | 324° |
| 2026-04-29 12:17 | 38.28253 | -0.54788 | 71 ft | 12 kts | 278° |
| 2026-04-29 12:17 | 38.28267 | -0.54912 | 71 ft | 16 kts | 281° |
| 2026-04-29 12:17 | 38.28287 | -0.55046 | 81 ft | 15 kts | 281° |
| 2026-04-29 12:17 | 38.28299 | -0.55127 | 87 ft | 4 kts | 279° |
| 2026-04-29 12:18 | 38.28300 | -0.55133 | 87 ft | 0 kts | 278° |
| 2026-04-29 12:20 | 38.28300 | -0.55136 | 86 ft | 1 kts | 278° |
| 2026-04-29 12:20 | 38.28304 | -0.55164 | 85 ft | 7 kts | 282° |
| 2026-04-29 12:20 | 38.28351 | -0.55210 | 90 ft | 13 kts | 18° |
| 2026-04-29 12:21 | 38.28415 | -0.55153 | 94 ft | 10 kts | 347° |
| 2026-04-29 12:21 | 38.28449 | -0.55259 | 98 ft | 16 kts | 279° |
| 2026-04-29 12:21 | 38.28465 | -0.55351 | 102 ft | 7 kts | 307° |
| 2026-04-29 12:21 | 38.28520 | -0.55352 | 99 ft | 6 kts | 10° |
| 2026-04-29 12:22 | 38.28536 | -0.55348 | 98 ft | 0 kts | 10° |